Time;durP1;ratioP1;P1;durP2;ratioP2;P2;SDS_P1;SDS_P2;PMS_P1;PMS_P2;Temp;Humidity;BMP_temperature;BMP_pressure;BME280_temperature;BME280_humidity;BME280_pressure;Samples;Min_cycle;Max_cycle;Signal;HPM_P1;HPM_P2
2022/08/18 00:02:21;;;;;;;116.40;64.05;;;;;;;18.77;100.00;100920.75;5017933;28;20045;-81
2022/08/18 00:04:48;;;;;;;101.38;60.00;;;;;;;18.75;100.00;100920.06;4993707;28;20025;-80
2022/08/18 00:07:22;;;;;;;106.30;61.75;;;;;;;18.63;100.00;100910.38;5014758;28;20041;-81
2022/08/18 00:09:48;;;;;;;106.72;61.72;;;;;;;18.69;100.00;100915.19;5014653;28;20038;-80
2022/08/18 00:12:30;;;;;;;107.63;61.28;;;;;;;18.64;100.00;100915.72;5013537;28;20440;-79
2022/08/18 00:15:00;;;;;;;108.43;62.08;;;;;;;18.59;100.00;100912.59;5014539;28;20030;-82
2022/08/18 00:17:26;;;;;;;109.45;62.30;;;;;;;18.58;100.00;100921.09;5009514;28;20034;-79
2022/08/18 00:19:56;;;;;;;113.38;61.58;;;;;;;18.43;100.00;100923.66;5015351;28;20030;-81
2022/08/18 00:22:22;;;;;;;115.47;61.60;;;;;;;18.41;100.00;100917.44;4997973;28;20509;-81
2022/08/18 00:24:53;;;;;;;114.43;63.97;;;;;;;18.52;100.00;100915.19;5013383;28;20030;-81
2022/08/18 00:27:22;;;;;;;108.47;60.90;;;;;;;18.47;100.00;100923.16;5015627;28;20556;-81
2022/08/18 00:29:48;;;;;;;111.90;62.75;;;;;;;18.37;100.00;100920.56;5012230;28;20113;-82
2022/08/18 00:32:16;;;;;;;113.10;60.80;;;;;;;18.47;100.00;100919.53;5016357;28;20057;-80
2022/08/18 00:34:45;;;;;;;119.70;63.42;;;;;;;18.50;100.00;100928.38;5015945;28;20465;-81
2022/08/18 00:37:11;;;;;;;105.68;60.83;;;;;;;18.51;100.00;100920.91;4995193;28;20102;-82
2022/08/18 00:39:36;;;;;;;116.78;62.00;;;;;;;18.40;100.00;100924.00;5002340;28;20042;-84
2022/08/18 00:42:17;;;;;;;116.47;63.05;;;;;;;18.35;100.00;100919.84;5016330;28;20030;-81
2022/08/18 00:44:44;;;;;;;116.68;63.45;;;;;;;18.44;100.00;100934.59;5012778;28;20551;-82
2022/08/18 00:47:11;;;;;;;123.85;65.22;;;;;;;18.44;100.00;100934.59;5033102;28;20453;-82
2022/08/18 00:49:41;;;;;;;112.65;63.55;;;;;;;18.44;100.00;100936.50;5010456;28;20041;-81
2022/08/18 00:52:11;;;;;;;113.60;62.13;;;;;;;18.45;100.00;100936.34;5020821;28;20029;-82
2022/08/18 00:54:44;;;;;;;113.15;63.20;;;;;;;18.52;100.00;100942.06;5018655;28;20088;-81
2022/08/18 00:57:17;;;;;;;115.88;63.47;;;;;;;18.59;100.00;100939.47;5019506;28;20474;-82
2022/08/18 00:59:50;;;;;;;109.18;59.67;;;;;;;18.68;100.00;100939.31;5037603;28;20370;-82
2022/08/18 01:02:25;;;;;;;113.03;61.47;;;;;;;18.66;100.00;100935.84;5025727;28;20414;-81
2022/08/18 01:05:23;;;;;;;100.15;59.65;;;;;;;18.67;100.00;100929.22;5014819;28;20440;-82
2022/08/18 01:07:51;;;;;;;102.55;58.70;;;;;;;18.64;100.00;100939.81;5019309;28;20034;-82
2022/08/18 01:10:21;;;;;;;99.85;57.90;;;;;;;18.75;100.00;100928.38;5023958;28;20460;-80
2022/08/18 01:12:53;;;;;;;99.50;56.60;;;;;;;18.81;100.00;100926.84;5005179;28;20079;-82
2022/08/18 01:15:24;;;;;;;98.57;56.75;;;;;;;18.76;100.00;100919.03;5026213;28;20949;-81
2022/08/18 01:23:53;;;;;;;99.97;59.35;;;;;;;18.69;100.00;100907.75;5039590;28;20099;-81
2022/08/18 01:26:21;;;;;;;101.07;60.03;;;;;;;18.66;100.00;100910.88;5037588;28;20446;-82
2022/08/18 01:28:48;;;;;;;105.45;61.67;;;;;;;18.66;100.00;100918.31;4994341;28;20128;-82
2022/08/18 01:31:36;;;;;;;104.32;61.30;;;;;;;18.69;100.00;100917.97;5002047;28;20125;-80
2022/08/18 01:34:02;;;;;;;103.95;60.00;;;;;;;18.62;100.00;100916.94;5039575;28;20040;-82
2022/08/18 01:36:28;;;;;;;101.53;61.28;;;;;;;18.65;100.00;100923.00;4999883;28;20065;-81
2022/08/18 01:38:53;;;;;;;106.53;60.28;;;;;;;18.65;100.00;100919.38;4990570;28;20489;-79
2022/08/18 01:41:21;;;;;;;96.60;57.92;;;;;;;18.59;100.00;100922.81;4988974;28;20105;-81
2022/08/18 01:43:48;;;;;;;101.72;59.78;;;;;;;18.64;100.00;100926.81;5038568;28;20056;-81
2022/08/18 01:46:18;;;;;;;107.15;61.03;;;;;;;18.69;100.00;100934.59;5004594;28;20049;-81
2022/08/18 01:48:45;;;;;;;102.55;60.42;;;;;;;18.74;100.00;100935.84;5018333;28;20037;-82
2022/08/18 01:51:12;;;;;;;98.70;60.20;;;;;;;18.78;100.00;100939.13;5019226;28;20038;-81
2022/08/18 01:53:38;;;;;;;98.90;58.60;;;;;;;18.69;100.00;100942.94;5026435;28;20038;-81
2022/08/18 01:56:06;;;;;;;102.85;57.10;;;;;;;18.70;100.00;100933.59;4984358;28;20065;-80
2022/08/18 01:58:34;;;;;;;101.10;61.10;;;;;;;18.77;100.00;100937.38;5018298;28;20049;-82
2022/08/18 02:01:01;;;;;;;97.60;59.85;;;;;;;18.68;100.00;100933.75;5013631;28;20116;-81
2022/08/18 02:03:43;;;;;;;98.05;57.55;;;;;;;18.63;100.00;100932.56;5032797;28;20030;-81
2022/08/18 02:06:12;;;;;;;105.47;60.45;;;;;;;18.58;100.00;100912.75;5039095;28;20044;-81
2022/08/18 02:08:41;;;;;;;106.30;60.72;;;;;;;18.57;100.00;100919.38;5021366;28;20037;-81
2022/08/18 02:11:06;;;;;;;101.20;58.67;;;;;;;18.55;100.00;100917.63;5018553;28;20497;-80
2022/08/18 02:13:33;;;;;;;98.32;59.10;;;;;;;18.55;100.00;100927.84;5017086;28;20451;-82
2022/08/18 02:15:59;;;;;;;107.00;62.90;;;;;;;18.63;100.00;100929.78;5006230;28;20022;-81
2022/08/18 02:18:31;;;;;;;99.03;59.90;;;;;;;18.61;100.00;100941.03;5016392;28;20445;-81
2022/08/18 02:21:04;;;;;;;98.97;59.00;;;;;;;18.68;100.00;100946.75;5014437;28;20040;-82
2022/08/18 02:23:34;;;;;;;97.15;58.22;;;;;;;18.67;100.00;100951.41;5021809;28;20083;-82
2022/08/18 02:26:04;;;;;;;97.35;60.08;;;;;;;18.70;100.00;100948.31;5022617;28;20470;-81
2022/08/18 02:28:29;;;;;;;93.78;58.88;;;;;;;18.62;100.00;100939.13;5017889;28;20091;-81
2022/08/18 02:31:02;;;;;;;100.32;59.90;;;;;;;18.64;100.00;100940.66;4987073;28;20037;-82
2022/08/18 02:33:31;;;;;;;91.45;57.97;;;;;;;18.61;100.00;100949.38;5023043;28;20038;-82
2022/08/18 02:35:56;;;;;;;97.43;56.28;;;;;;;18.55;100.00;100953.66;5010435;28;20046;-82
2022/08/18 02:38:22;;;;;;;93.28;56.22;;;;;;;18.52;100.00;100951.25;5005094;28;20029;-81
2022/08/18 02:40:57;;;;;;;89.63;56.15;;;;;;;18.48;100.00;100947.09;5006034;28;20069;-81
2022/08/18 02:43:23;;;;;;;99.65;57.90;;;;;;;18.55;100.00;100961.13;5002922;28;20109;-80
2022/08/18 02:45:49;;;;;;;99.88;59.03;;;;;;;18.45;100.00;100958.53;5002475;28;20057;-82
2022/08/18 02:48:18;;;;;;;99.88;58.33;;;;;;;18.53;100.00;100958.53;4998938;28;20118;-80
2022/08/18 02:50:45;;;;;;;100.45;57.88;;;;;;;18.54;100.00;100959.38;5011110;28;20061;-80
2022/08/18 02:53:23;;;;;;;98.20;57.75;;;;;;;18.59;100.00;100972.75;4996492;28;20085;-81
2022/08/18 02:55:49;;;;;;;94.95;57.42;;;;;;;18.62;100.00;100961.31;5018290;28;20053;-81
2022/08/18 02:58:15;;;;;;;97.88;56.47;;;;;;;18.57;100.00;100964.59;5009129;28;20042;-80
2022/08/18 03:00:41;;;;;;;103.57;60.03;;;;;;;18.60;100.00;100953.16;4981282;28;20054;-81
2022/08/18 03:03:07;;;;;;;106.60;59.90;;;;;;;18.58;100.00;100954.34;5019004;28;20450;-81
2022/08/18 03:05:34;;;;;;;97.50;56.28;;;;;;;18.48;100.00;100955.41;5018064;28;20030;-80
2022/08/18 03:08:02;;;;;;;90.75;54.03;;;;;;;18.48;100.00;100948.97;5019135;28;20097;-79
2022/08/18 03:10:33;;;;;;;96.35;55.10;;;;;;;18.44;100.00;100951.22;5002680;28;20124;-81
2022/08/18 03:13:01;;;;;;;94.90;56.05;;;;;;;18.43;100.00;100952.28;4994038;28;20030;-80
2022/08/18 03:15:29;;;;;;;90.15;54.08;;;;;;;18.36;100.00;100951.22;4985990;28;20033;-80
2022/08/18 03:17:58;;;;;;;91.20;56.20;;;;;;;18.31;100.00;100942.53;5015806;28;20065;-80
2022/08/18 03:20:23;;;;;;;91.22;53.55;;;;;;;18.26;100.00;100944.97;5013839;28;20058;-82
2022/08/18 03:22:49;;;;;;;97.97;56.17;;;;;;;18.24;100.00;100944.28;5007907;28;20038;-82
2022/08/18 03:25:16;;;;;;;90.32;52.58;;;;;;;18.32;100.00;100955.38;4999473;28;20100;-80
2022/08/18 03:27:41;;;;;;;87.60;53.10;;;;;;;18.34;100.00;100945.84;4980984;28;20110;-81
2022/08/18 03:30:07;;;;;;;89.05;52.25;;;;;;;18.34;100.00;100951.38;4987735;28;20038;-79
2022/08/18 03:32:33;;;;;;;89.53;54.85;;;;;;;18.41;100.00;100945.16;4991929;28;20367;-82
2022/08/18 03:34:58;;;;;;;80.85;50.25;;;;;;;18.45;100.00;100949.34;4999000;28;20046;-80
2022/08/18 03:37:24;;;;;;;93.43;50.55;;;;;;;18.45;100.00;100943.78;5019830;28;20539;-80
2022/08/18 03:39:51;;;;;;;88.50;52.40;;;;;;;18.39;100.00;100942.56;5014309;28;20132;-80
2022/08/18 03:42:16;;;;;;;81.57;49.95;;;;;;;18.39;100.00;100939.78;5001758;28;20046;-80
2022/08/18 03:44:42;;;;;;;84.43;49.40;;;;;;;18.44;100.00;100942.91;4998756;28;20088;-82
2022/08/18 03:47:09;;;;;;;75.10;48.50;;;;;;;18.47;100.00;100948.13;5027623;28;20053;-81
2022/08/18 03:49:37;;;;;;;80.43;49.38;;;;;;;18.46;100.00;100943.63;4986585;28;20510;-82
2022/08/18 03:52:06;;;;;;;83.15;49.97;;;;;;;18.47;100.00;100947.25;4988531;28;20034;-79
2022/08/18 03:54:32;;;;;;;77.90;47.72;;;;;;;18.48;100.00;100943.44;5006133;28;20031;-80
2022/08/18 03:56:59;;;;;;;73.80;47.05;;;;;;;18.48;100.00;100936.00;5014454;28;20049;-82
2022/08/18 03:59:27;;;;;;;75.28;47.25;;;;;;;18.51;100.00;100927.34;5017017;28;20025;-81
2022/08/18 04:01:54;;;;;;;75.55;48.05;;;;;;;18.53;100.00;100932.72;5012443;28;20068;-81
2022/08/18 04:04:22;;;;;;;73.28;46.80;;;;;;;18.55;100.00;100933.41;4977183;28;20030;-82
2022/08/18 04:06:54;;;;;;;74.78;46.15;;;;;;;18.54;100.00;100946.41;5011626;28;20109;-82
2022/08/18 04:09:23;;;;;;;71.25;44.60;;;;;;;18.53;100.00;100941.03;5013810;28;20034;-83
2022/08/18 04:11:51;;;;;;;75.35;45.47;;;;;;;18.64;100.00;100945.34;4993797;28;20092;-83
2022/08/18 04:14:31;;;;;;;73.43;45.42;;;;;;;18.53;100.00;100933.56;4985839;28;20042;-82
2022/08/18 04:16:58;;;;;;;68.38;42.55;;;;;;;18.53;100.00;100941.03;5004454;28;20034;-83
2022/08/18 04:19:24;;;;;;;63.28;41.22;;;;;;;18.51;100.00;100945.88;5001760;28;20038;-83
2022/08/18 04:21:52;;;;;;;62.45;39.13;;;;;;;18.43;100.00;100956.94;5019646;28;20045;-82
2022/08/18 04:24:18;;;;;;;67.35;38.92;;;;;;;18.42;100.00;100946.91;4995039;28;20022;-83
2022/08/18 04:26:46;;;;;;;63.13;38.33;;;;;;;18.42;100.00;100950.53;5019955;28;20044;-80
2022/08/18 04:29:17;;;;;;;63.85;38.70;;;;;;;18.40;100.00;100941.53;5020798;28;20058;-81
2022/08/18 04:31:44;;;;;;;59.88;37.78;;;;;;;18.45;100.00;100947.44;5002389;28;20041;-80
2022/08/18 04:34:11;;;;;;;57.53;36.17;;;;;;;18.45;100.00;100941.88;4998380;28;20038;-80
2022/08/18 04:36:38;;;;;;;61.38;38.03;;;;;;;18.46;100.00;100946.41;5013044;28;20132;-80
2022/08/18 04:39:07;;;;;;;57.67;37.95;;;;;;;18.49;100.00;100950.72;5023529;28;20042;-79
2022/08/18 04:41:37;;;;;;;60.58;38.42;;;;;;;18.49;100.00;100950.72;5028868;28;20034;-80
2022/08/18 04:44:07;;;;;;;59.47;38.20;;;;;;;18.52;100.00;100953.16;4994614;28;20216;-78
2022/08/18 04:46:53;;;;;;;58.00;37.10;;;;;;;18.49;100.00;100957.13;5039657;28;20065;-79
2022/08/18 04:49:24;;;;;;;59.08;38.10;;;;;;;18.53;100.00;100972.41;5012719;28;20034;-79
2022/08/18 04:54:37;;;;;;;54.00;35.90;;;;;;;18.58;100.00;100965.44;5024061;28;20041;-79
2022/08/18 04:57:11;;;;;;;60.95;37.80;;;;;;;18.56;100.00;100971.16;5025445;28;20036;-81
2022/08/18 04:59:42;;;;;;;60.60;39.53;;;;;;;18.47;100.00;100969.44;5025098;28;20061;-82
2022/08/18 05:02:09;;;;;;;63.92;38.63;;;;;;;18.51;100.00;100968.94;5003719;28;20045;-82
2022/08/18 05:04:39;;;;;;;62.03;39.22;;;;;;;18.44;100.00;100967.88;5023479;28;20029;-82
2022/08/18 05:07:08;;;;;;;65.80;41.42;;;;;;;18.46;100.00;100978.78;5024703;28;20033;-80
2022/08/18 05:09:34;;;;;;;67.35;41.25;;;;;;;18.55;100.00;100981.41;5031892;28;20061;-83
2022/08/18 05:12:02;;;;;;;65.20;40.28;;;;;;;18.54;100.00;100981.56;5014815;28;20447;-81
2022/08/18 05:14:30;;;;;;;72.28;43.50;;;;;;;18.54;100.00;100988.00;5006698;28;20410;-82
2022/08/18 05:17:03;;;;;;;71.28;43.40;;;;;;;18.58;100.00;100987.63;5040884;28;20033;-83
2022/08/18 05:19:30;;;;;;;70.18;41.83;;;;;;;18.51;100.00;100979.13;5024711;28;20061;-82
2022/08/18 05:21:58;;;;;;;66.20;43.05;;;;;;;18.57;100.00;100981.22;5006017;28;20049;-82
2022/08/18 05:24:24;;;;;;;76.82;43.58;;;;;;;18.58;100.00;100984.88;5003738;28;20033;-81
2022/08/18 05:26:54;;;;;;;70.78;43.78;;;;;;;18.59;100.00;100981.06;5003785;28;20116;-81
2022/08/18 05:29:21;;;;;;;72.15;43.95;;;;;;;18.57;100.00;100984.00;5023110;28;20033;-82
2022/08/18 05:31:48;;;;;;;71.85;44.67;;;;;;;18.55;100.00;100986.94;5006655;28;20037;-82
2022/08/18 05:34:16;;;;;;;71.25;42.97;;;;;;;18.59;100.00;100989.38;5041473;28;20064;-82
2022/08/18 05:36:47;;;;;;;68.55;43.00;;;;;;;18.66;100.00;100990.41;5041331;28;20037;-82
2022/08/18 05:39:44;;;;;;;75.63;45.22;;;;;;;18.69;100.00;100992.84;5024293;28;20040;-82
2022/08/18 05:42:16;;;;;;;67.80;43.13;;;;;;;18.82;100.00;101001.53;5020774;28;20113;-82
2022/08/18 05:44:48;;;;;;;69.57;43.60;;;;;;;18.75;100.00;101003.28;5021152;28;20455;-82
2022/08/18 05:47:23;;;;;;;79.33;46.87;;;;;;;18.78;100.00;101002.94;5036626;28;20099;-81
2022/08/18 05:49:53;;;;;;;71.78;46.58;;;;;;;18.82;100.00;100995.13;5002397;28;20074;-82
2022/08/18 05:52:54;;;;;;;73.03;45.75;;;;;;;18.69;100.00;101001.19;5033920;28;20056;-81
2022/08/18 05:58:21;;;;;;;68.07;42.85;;;;;;;18.80;100.00;100997.22;5048409;28;20041;-81
2022/08/18 06:00:53;;;;;;;66.18;42.47;;;;;;;18.87;100.00;101004.72;5048834;28;20036;-80
2022/08/18 06:03:53;;;;;;;60.30;40.70;;;;;;;18.90;100.00;101003.50;5022597;28;20119;-82
2022/08/18 06:06:26;;;;;;;57.88;41.80;;;;;;;18.88;100.00;101009.22;5012087;28;20103;-79
2022/08/18 06:09:31;;;;;;;63.53;41.50;;;;;;;18.86;100.00;101005.75;5009233;28;20030;-80
2022/08/18 06:12:08;;;;;;;64.18;40.80;;;;;;;18.99;100.00;101004.34;5009078;28;20049;-82
2022/08/18 06:14:36;;;;;;;63.92;42.03;;;;;;;18.94;100.00;101015.09;5010305;28;20040;-82
2022/08/18 06:17:07;;;;;;;67.15;41.58;;;;;;;18.97;100.00;101014.75;5009909;28;20038;-80
2022/08/18 06:19:54;;;;;;;56.72;37.63;;;;;;;18.87;100.00;101013.03;5017097;28;20053;-81
2022/08/18 06:22:24;;;;;;;59.85;38.13;;;;;;;18.94;100.00;101021.53;5026599;28;20164;-81
2022/08/18 06:25:00;;;;;;;63.10;39.42;;;;;;;18.96;100.00;101021.38;4993007;28;20030;-81
2022/08/18 06:27:54;;;;;;;58.90;35.50;;;;;;;18.93;100.00;101025.34;5044760;28;20038;-80
2022/08/18 06:30:49;;;;;;;50.42;34.47;;;;;;;19.12;100.00;101028.81;5026399;28;20037;-81
2022/08/18 06:33:28;;;;;;;60.58;34.70;;;;;;;19.17;100.00;101023.59;5014191;28;20076;-80
2022/08/18 06:36:01;;;;;;;53.75;36.60;;;;;;;19.17;100.00;101024.50;5026320;28;20044;-80
2022/08/18 06:38:45;;;;;;;;;;;;;;;19.11;100.00;101027.97;5029070;28;20032;-80
2022/08/18 06:41:14;;;;;;;51.03;33.05;;;;;;;19.19;100.00;101018.78;5024915;28;19953;-81
2022/08/18 06:43:57;;;;;;;47.33;32.10;;;;;;;19.12;100.00;101023.28;5007940;28;20026;-82
2022/08/18 06:46:35;;;;;;;51.28;30.60;;;;;;;19.14;100.00;101029.53;5007388;28;20052;-82
2022/08/18 06:49:08;;;;;;;43.53;29.45;;;;;;;19.21;100.00;101028.66;5006152;28;20029;-82
2022/08/18 06:51:36;;;;;;;44.22;31.13;;;;;;;19.23;100.00;101032.13;5021434;28;20041;-83
2022/08/18 06:54:24;;;;;;;39.80;29.45;;;;;;;19.31;100.00;101034.03;5019764;28;20120;-83
2022/08/18 06:56:53;;;;;;;39.58;26.98;;;;;;;19.34;100.00;101036.44;5002251;28;20029;-83
2022/08/18 06:59:31;;;;;;;42.67;28.77;;;;;;;19.31;100.00;101033.16;5003864;28;20030;-83
2022/08/18 07:02:00;;;;;;;40.33;27.63;;;;;;;19.21;100.00;101042.53;5005166;28;20481;-83
2022/08/18 07:04:35;;;;;;;40.13;27.90;;;;;;;19.33;100.00;101056.91;5002337;28;20060;-83
2022/08/18 07:07:28;;;;;;;42.20;28.15;;;;;;;19.42;100.00;101050.31;5003097;28;20117;-84
2022/08/18 07:09:55;;;;;;;47.92;30.27;;;;;;;19.40;100.00;101052.41;5019073;28;20477;-84
2022/08/18 07:12:24;;;;;;;47.00;30.73;;;;;;;19.42;100.00;101046.69;5019154;28;20029;-82
2022/08/18 07:14:56;;;;;;;47.05;30.63;;;;;;;19.45;100.00;101044.44;5020486;28;20065;-85
2022/08/18 07:17:26;;;;;;;47.47;32.00;;;;;;;19.52;100.00;101047.38;5018917;28;20026;-83
2022/08/18 07:20:21;;;;;;;46.25;31.63;;;;;;;19.67;100.00;101050.28;5003192;28;20117;-83
2022/08/18 07:22:59;;;;;;;42.38;29.15;;;;;;;19.64;100.00;101045.97;5000916;28;20489;-83
2022/08/18 07:25:36;;;;;;;44.47;27.50;;;;;;;20.05;100.00;101049.72;5020748;28;20030;-83
2022/08/18 07:28:01;;;;;;;43.60;26.55;;;;;;;20.13;100.00;101058.88;5019351;28;20068;-84
2022/08/18 07:30:34;;;;;;;38.83;26.35;;;;;;;20.14;100.00;101052.28;4999752;28;20030;-81
2022/08/18 07:33:17;;;;;;;38.15;26.63;;;;;;;20.38;100.00;101059.66;5019068;28;20025;-83
2022/08/18 07:35:56;;;;;;;37.53;25.35;;;;;;;20.28;100.00;101058.13;5003110;28;20069;-84
2022/08/18 07:38:33;;;;;;;38.33;24.65;;;;;;;20.24;100.00;101057.63;5018957;28;20045;-82
2022/08/18 07:41:31;;;;;;;34.10;24.20;;;;;;;20.31;100.00;101066.13;5002418;28;20034;-84
2022/08/18 07:44:07;;;;;;;33.40;24.23;;;;;;;;;;5007428;28;20120;-83
2022/08/18 07:47:03;;;;;;;36.20;23.92;;;;;;;20.22;100.00;101064.41;5018913;28;20123;-82
2022/08/18 07:49:36;;;;;;;35.05;25.58;;;;;;;20.09;100.00;101060.28;5018416;28;20026;-83
2022/08/18 07:52:04;;;;;;;42.70;24.75;;;;;;;20.10;100.00;101055.59;5020288;28;20030;-83
2022/08/18 07:54:44;;;;;;;34.08;21.20;;;;;;;20.00;100.00;101045.56;5018469;28;20057;-83
2022/08/18 07:57:25;;;;;;;31.48;21.40;;;;;;;20.07;100.00;101047.59;5002924;28;20048;-83
2022/08/18 08:00:08;;;;;;;35.63;22.92;;;;;;;20.15;100.00;101044.78;5019947;28;20030;-85
2022/08/18 08:02:43;;;;;;;34.70;22.13;;;;;;;20.32;100.00;101049.25;5018843;28;20511;-83
2022/08/18 08:05:36;;;;;;;36.53;22.40;;;;;;;20.50;100.00;101045.34;5017932;28;20421;-82
2022/08/18 08:08:38;;;;;;;35.08;21.42;;;;;;;20.74;100.00;101048.03;5015027;28;20091;-83
2022/08/18 08:11:18;;;;;;;31.52;21.55;;;;;;;21.04;100.00;101056.50;5015010;28;20409;-84
2022/08/18 08:14:11;;;;;;;27.48;17.77;;;;;;;21.21;100.00;101053.59;5028967;28;20035;-83
2022/08/18 08:17:32;;;;;;;28.67;18.40;;;;;;;22.35;100.00;101051.56;4999382;28;20049;-84
2022/08/18 08:20:10;;;;;;;26.08;18.55;;;;;;;22.33;100.00;101053.69;4983904;28;20434;-83
2022/08/18 08:22:52;;;;;;;31.15;19.67;;;;;;;21.75;100.00;101049.81;5016998;28;20457;-84
2022/08/18 08:25:20;;;;;;;32.15;20.88;;;;;;;21.52;100.00;101049.88;5005027;28;20129;-82
2022/08/18 08:27:46;;;;;;;33.33;21.40;;;;;;;21.21;100.00;101059.16;5016842;28;20084;-83
2022/08/18 08:30:16;;;;;;;34.97;21.58;;;;;;;21.04;100.00;101056.50;5018370;28;20029;-83
2022/08/18 08:33:06;;;;;;;30.77;21.92;;;;;;;20.97;100.00;101063.84;5019516;28;20026;-84
2022/08/18 08:35:55;;;;;;;33.45;21.92;;;;;;;20.95;100.00;101073.44;5019907;28;20441;-83
2022/08/18 08:38:37;;;;;;;29.42;20.02;;;;;;;20.92;100.00;101075.56;4998917;28;20340;-83
2022/08/18 08:41:13;;;;;;;35.95;22.15;;;;;;;20.72;100.00;101064.00;4999079;28;20038;-83
2022/08/18 08:43:46;;;;;;;32.80;22.20;;;;;;;20.69;100.00;101069.97;4998401;28;20034;-83
2022/08/18 08:46:18;;;;;;;33.42;21.92;;;;;;;20.54;100.00;101060.63;5008525;28;20057;-84
2022/08/18 08:48:58;;;;;;;37.05;20.63;;;;;;;20.79;100.00;101074.41;5004424;28;20411;-84
2022/08/18 08:51:39;;;;;;;30.92;20.35;;;;;;;20.88;100.00;101076.09;4999637;28;20029;-83
2022/08/18 08:54:11;;;;;;;30.30;19.42;;;;;;;20.76;100.00;101081.22;5019044;28;20068;-84
2022/08/18 08:56:43;;;;;;;29.15;18.15;;;;;;;20.73;100.00;101078.81;5021925;28;20034;-84
2022/08/18 08:59:12;;;;;;;30.13;18.35;;;;;;;20.72;100.00;101085.41;5039293;28;20025;-82
2022/08/18 09:02:15;;;;;;;30.45;17.30;;;;;;;20.53;100.00;101087.56;5021591;28;20033;-83
2022/08/18 09:04:50;;;;;;;;;;;;;;;20.80;100.00;101085.38;5005879;28;20033;-84
2022/08/18 09:07:16;;;;;;;28.50;17.67;;;;;;;20.92;100.00;101089.47;5005554;28;19956;-85
2022/08/18 09:09:50;;;;;;;25.88;17.90;;;;;;;21.13;100.00;101090.72;5005417;28;20026;-83
2022/08/18 09:12:16;;;;;;;29.25;19.92;;;;;;;21.37;100.00;101083.25;5021297;28;20052;-81
2022/08/18 09:14:48;;;;;;;27.30;18.13;;;;;;;22.07;100.00;101081.16;5004108;28;20472;-83
2022/08/18 09:17:51;;;;;;;28.63;18.65;;;;;;;22.61;100.00;101085.59;5021749;28;20037;-84
2022/08/18 09:20:39;;;;;;;28.00;18.15;;;;;;;22.30;100.00;101086.69;5018101;28;20097;-85
2022/08/18 09:23:12;;;;;;;22.65;16.48;;;;;;;23.22;100.00;101077.72;5014777;28;20029;-84
2022/08/18 09:25:40;;;;;;;22.45;15.65;;;;;;;23.85;100.00;101079.81;5024579;28;20056;-83
2022/08/18 09:28:41;;;;;;;22.02;14.43;;;;;;;23.23;100.00;101078.59;5024812;28;20029;-82
2022/08/18 09:31:09;;;;;;;18.92;15.13;;;;;;;22.79;100.00;101077.63;5041889;28;20421;-83
2022/08/18 09:33:39;;;;;;;21.05;14.50;;;;;;;22.74;100.00;101077.38;5008669;28;20038;-83
2022/08/18 09:36:34;;;;;;;23.52;16.67;;;;;;;22.53;100.00;101080.97;5024259;28;20424;-83
2022/08/18 09:42:06;;;;;;;27.00;17.15;;;;;;;22.37;100.00;101076.50;5042232;28;20029;-83
2022/08/18 09:44:47;;;;;;;23.30;16.20;;;;;;;22.14;100.00;101077.41;5008672;28;20075;-82
2022/08/18 09:47:19;;;;;;;24.88;15.40;;;;;;;23.01;100.00;101072.97;5025622;28;20046;-83
2022/08/18 09:49:51;;;;;;;24.25;14.30;;;;;;;23.40;100.00;101074.47;5024608;28;20041;-82
2022/08/18 09:52:20;;;;;;;22.55;15.15;;;;;;;24.06;100.00;101075.22;5026204;28;20033;-82
2022/08/18 09:54:57;;;;;;;18.92;14.30;;;;;;;24.12;100.00;101069.66;5026492;28;20087;-83
2022/08/18 09:57:27;;;;;;;20.08;13.23;;;;;;;24.42;100.00;101075.00;5026713;28;20025;-83
2022/08/18 10:00:18;;;;;;;20.15;13.70;;;;;;;24.67;100.00;101077.28;5044461;28;20444;-84
2022/08/18 10:02:46;;;;;;;16.88;12.60;;;;;;;24.47;100.00;101082.78;5022769;28;20030;-83
2022/08/18 10:05:18;;;;;;;20.92;13.55;;;;;;;23.97;100.00;101072.59;5004789;28;20037;-83
2022/08/18 10:08:05;;;;;;;19.20;13.50;;;;;;;23.98;100.00;101065.03;5008154;28;20033;-82
2022/08/18 10:10:54;;;;;;;19.30;12.35;;;;;;;23.83;100.00;101066.03;5026549;28;20033;-84
2022/08/18 10:13:35;;;;;;;20.20;12.88;;;;;;;23.55;100.00;101057.59;5009694;28;20036;-84
2022/08/18 10:16:15;;;;;;;18.70;14.20;;;;;;;23.56;100.00;101059.31;4991746;28;20053;-84
2022/08/18 10:19:18;;;;;;;20.88;13.93;;;;;;;23.58;100.00;101054.41;5022596;28;20026;-83
2022/08/18 10:21:54;;;;;;;18.88;12.88;;;;;;;23.80;100.00;101057.16;5009179;28;20022;-85
2022/08/18 10:24:27;;;;;;;30.98;14.07;;;;;;;23.71;100.00;101049.97;5010807;28;20036;-81
2022/08/18 10:26:52;;;;;;;20.45;13.10;;;;;;;23.79;100.00;101058.19;5027727;28;20040;-82
2022/08/18 10:29:40;;;;;;;19.73;13.55;;;;;;;23.90;100.00;101059.63;5043925;28;20025;-83
2022/08/18 10:32:08;;;;;;;20.55;12.45;;;;;;;23.94;100.00;101050.63;5028242;28;20041;-84
2022/08/18 10:34:39;;;;;;;19.95;12.82;;;;;;;24.07;100.00;101047.03;5011562;28;20029;-83
2022/08/18 10:37:17;;;;;;;19.27;12.60;;;;;;;24.15;100.00;101048.78;5025383;28;20029;-83
2022/08/18 10:39:48;;;;;;;16.58;11.80;;;;;;;24.03;100.00;101049.34;5027835;28;20472;-83
2022/08/18 10:42:33;;;;;;;25.92;13.90;;;;;;;24.17;100.00;101060.63;5012073;28;20440;-84
2022/08/18 10:45:14;;;;;;;25.88;13.07;;;;;;;24.28;100.00;101068.44;5011485;28;20041;-84
2022/08/18 10:47:41;;;;;;;17.95;13.52;;;;;;;23.97;100.00;101053.00;5042093;28;20069;-84
2022/08/18 10:50:21;;;;;;;20.08;14.30;;;;;;;24.49;100.00;101050.69;5024818;28;20033;-84
2022/08/18 10:53:02;;;;;;;21.38;14.43;;;;;;;24.36;100.00;101059.00;5025011;28;20033;-84
2022/08/18 10:55:46;;;;;;;20.30;14.57;;;;;;;24.22;100.00;101058.09;5026491;28;20071;-83
2022/08/18 10:58:29;;;;;;;22.27;12.90;;;;;;;24.46;100.00;101048.28;5026518;28;20397;-84
2022/08/18 11:01:42;;;;;;;22.92;14.82;;;;;;;24.39;100.00;101044.59;5041715;28;20124;-84
2022/08/18 11:04:31;;;;;;;20.90;15.63;;;;;;;24.49;100.00;101041.41;5016665;28;20038;-84
2022/08/18 11:07:28;;;;;;;25.50;14.80;;;;;;;24.67;100.00;101035.28;5024318;28;20059;-82
2022/08/18 11:09:57;;;;;;;23.75;13.93;;;;;;;24.70;100.00;101032.06;5041016;28;20485;-83
2022/08/18 11:12:54;;;;;;;22.25;14.43;;;;;;;24.54;100.00;101038.84;5023778;28;20029;-83
2022/08/18 11:15:45;;;;;;;21.50;14.77;;;;;;;24.71;100.00;101040.25;5005056;28;20062;-85
2022/08/18 11:18:28;;;;;;;31.08;15.23;;;;;;;25.13;100.00;101029.75;5004173;28;20054;-84
2022/08/18 11:21:32;;;;;;;23.73;14.73;;;;;;;25.64;100.00;101025.47;5006371;28;20095;-82
2022/08/18 11:24:16;;;;;;;22.65;15.13;;;;;;;26.21;100.00;101011.78;5013158;28;20284;-84
2022/08/18 11:26:56;;;;;;;26.17;13.77;;;;;;;26.27;100.00;101014.78;5007715;28;20030;-83
2022/08/18 11:29:25;;;;;;;26.42;14.13;;;;;;;26.06;100.00;101015.97;5041172;28;20097;-84
2022/08/18 11:32:03;;;;;;;21.92;14.32;;;;;;;25.99;100.00;101005.63;5022789;28;20037;-84
2022/08/18 11:34:40;;;;;;;24.33;13.95;;;;;;;26.00;100.00;101009.28;5023862;28;20112;-84
2022/08/18 11:37:20;;;;;;;24.48;16.23;;;;;;;25.70;100.00;101004.13;5023590;28;20067;-84
2022/08/18 11:39:48;;;;;;;25.63;15.40;;;;;;;26.00;100.00;100996.09;5006931;28;20029;-83
2022/08/18 11:42:16;;;;;;;22.17;13.30;;;;;;;25.83;100.00;100992.88;5023425;28;20436;-84
2022/08/18 11:44:42;;;;;;;17.42;12.13;;;;;;;25.94;100.00;100996.97;5040921;28;20105;-84
2022/08/18 11:47:15;;;;;;;21.52;12.70;;;;;;;26.20;100.00;100993.25;5002839;28;20069;-85
2022/08/18 11:50:07;;;;;;;23.55;15.15;;;;;;;25.76;100.00;100986.44;5021145;28;20029;-84